Fort Knox, KY

5:30 AM EST on November 23, 2014 (GMT -0500)
Farmington Estates | Change Station
CLOSE
Current Station
Personal Weather Station
Location: Vine Grove, KY
Elevation: 669 ft
Nearby Weather Stations
Active Advisory: Special Statement

Elev 669 ft 37.86 °N, 86.03 °W | Updated 10 minutes ago

Overcast
Overcast
52.3 °F
Feels Like 52.3 °F
N
3.2
Wind Variable Wind from SE

Today
High -- | Low -- °F
--% Chance of Precip.
Yesterday
High -- | Low -- °F
Precip. -- in
7:32 AM 5:27 PM
New Moon, 1% visible
Pressure 29.95 in
Visibility 10.0 miles
Clouds Mostly Cloudy 3800 ft
Overcast 4900 ft
Dew Point 39 °F
Humidity 60%
Rainfall 0.00 in
Snow Depth Not available.
UV 0 out of 12
Pollen .10 out of 12
Air Quality Not available.
Flu Activity Not available.
SPECI KFTK 231023Z AUTO 14007KT 10SM BKN038 OVC049 12/03 A2995 RMK AO2

More Conditions Fewer Conditions

Pressure 29.95 in
Visibility 10.0 miles
Clouds Mostly Cloudy 3800 ft
Overcast 4900 ft
Dew Point 39 °F
Humidity 60%
Rainfall 0.00 in
Snow Depth Not available.
UV 0 out of 12
Pollen .10 out of 12
Air Quality Not available.
Flu Activity Not available.
SPECI KFTK 231023Z AUTO 14007KT 10SM BKN038 OVC049 12/03 A2995 RMK AO2

More Conditions Fewer Conditions

10-Day Weather Forecast

Almanac

Astronomy

Nov. 23, 2014 Rise Set
Actual Time
Civil Twilight
Nautical Twilight
Astronomical Twilight
Moon
Length of Visible Light
Length of Day
Tomorrow will be .
, % of the Moon is Illuminated

Today's Extremes

State Highs State Lows

Community

WunderPhotos

Upload Photos

1,773,030 photos uploaded!

WunderBlogs® & News

Nearby

Air Quality

  Air Quality AQ Index Pollutant
Not available.

Snow Depth

Station Depth Elevation

Earthquake Activity

City Distance Mag. Time & Date
Minimum magnitude displayed is 2.5.

Coastal Water Temperatures

Place Temperature

Nearby Weather Stations